createdAt,value
2023-01-28T00:00:37.846Z,45.04
2023-01-28T00:03:04.360Z,44.90
2023-01-28T00:05:31.181Z,45.37
2023-01-28T00:07:58.247Z,46.26
2023-01-28T00:10:24.730Z,45.98
2023-01-28T00:12:51.247Z,46.02
2023-01-28T00:15:17.852Z,46.25
2023-01-28T00:17:44.409Z,46.56
2023-01-28T00:20:11.369Z,46.76
2023-01-28T00:22:37.965Z,45.84
2023-01-28T00:25:05.117Z,46.56
2023-01-28T00:27:31.616Z,46.46
2023-01-28T00:29:58.103Z,46.93
2023-01-28T00:32:24.601Z,47.22
2023-01-28T00:34:52.773Z,46.77
2023-01-28T00:37:19.348Z,46.71
2023-01-28T00:39:45.849Z,46.51
2023-01-28T00:42:12.427Z,46.39
2023-01-28T00:44:38.913Z,46.25
2023-01-28T00:47:05.416Z,46.12
2023-01-28T00:49:32.284Z,46.52
2023-01-28T00:51:58.779Z,46.70
2023-01-28T00:54:25.409Z,46.52
2023-01-28T00:56:53.509Z,47.53
2023-01-28T00:59:20.332Z,47.26
2023-01-28T01:01:47.573Z,47.43
2023-01-28T01:04:14.089Z,47.51
2023-01-28T01:06:41.026Z,47.64
2023-01-28T01:09:11.632Z,47.10
2023-01-28T01:11:39.823Z,46.92
2023-01-28T01:14:06.946Z,46.33
2023-01-28T01:16:35.285Z,46.43
2023-01-28T01:19:03.091Z,46.20
2023-01-28T01:21:30.822Z,45.88
2023-01-28T01:23:58.572Z,43.38
2023-01-28T01:26:27.603Z,41.75
2023-01-28T01:28:54.288Z,42.37
2023-01-28T01:31:22.717Z,43.38
2023-01-28T01:33:51.334Z,43.79
2023-01-28T01:36:19.926Z,43.22
2023-01-28T01:38:46.836Z,43.67
2023-01-28T01:41:32.201Z,42.93
2023-01-28T01:44:01.774Z,43.67
2023-01-28T01:46:34.375Z,39.34
2023-01-28T01:49:12.215Z,40.83
2023-01-28T01:51:39.582Z,42.76
2023-01-28T01:54:06.960Z,44.12
2023-01-28T01:56:38.529Z,43.66
2023-01-28T01:59:09.792Z,44.55
2023-01-28T02:01:36.382Z,45.17
2023-01-28T02:04:12.762Z,44.74
2023-01-28T02:06:40.848Z,45.41
2023-01-28T02:09:23.948Z,45.09
2023-01-28T02:11:54.102Z,45.54
2023-01-28T02:14:30.947Z,45.46
2023-01-28T02:17:01.455Z,45.41
2023-01-28T02:19:37.434Z,45.95
2023-01-28T02:22:36.113Z,46.20
2023-01-28T02:25:12.221Z,45.66
2023-01-28T02:28:18.479Z,45.52
2023-01-28T02:30:55.724Z,46.28
2023-01-28T02:33:48.745Z,45.97
2023-01-28T02:36:29.482Z,46.45
2023-01-28T02:39:01.813Z,46.03
2023-01-28T02:41:37.933Z,42.18
2023-01-28T02:44:05.243Z,42.86
2023-01-28T02:46:50.353Z,42.81
2023-01-28T02:49:36.861Z,42.34
2023-01-28T02:52:12.839Z,41.72
2023-01-28T02:54:39.265Z,41.56
2023-01-28T02:57:23.867Z,40.65
2023-01-28T03:00:11.910Z,40.64
2023-01-28T03:02:54.324Z,40.07
2023-01-28T03:05:42.298Z,38.84
2023-01-28T03:08:30.030Z,40.37
2023-01-28T03:11:17.440Z,39.98
2023-01-28T03:14:04.282Z,39.04
2023-01-28T03:16:52.509Z,39.01
2023-01-28T03:19:38.457Z,38.41
2023-01-28T03:22:24.529Z,37.18
2023-01-28T03:25:11.445Z,36.18
2023-01-28T03:27:56.785Z,34.66
2023-01-28T03:30:53.102Z,37.29
2023-01-28T03:33:49.032Z,37.30
2023-01-28T03:36:35.017Z,37.13
2023-01-28T03:39:02.256Z,38.17
2023-01-28T03:41:28.770Z,38.57
2023-01-28T03:43:58.614Z,38.11
2023-01-28T03:46:26.048Z,36.18
2023-01-28T03:48:53.129Z,35.82
2023-01-28T03:51:20.144Z,34.95
2023-01-28T03:53:46.962Z,35.14
2023-01-28T03:56:18.222Z,35.50
2023-01-28T03:58:53.957Z,35.04
2023-01-28T04:01:21.510Z,35.26
2023-01-28T04:03:49.131Z,35.67
2023-01-28T04:06:21.605Z,35.89
2023-01-28T04:08:59.185Z,40.19
2023-01-28T04:11:38.037Z,44.01
2023-01-28T04:14:05.926Z,44.64
2023-01-28T04:16:42.646Z,46.11
2023-01-28T04:19:10.732Z,46.54
2023-01-28T04:21:37.310Z,46.49
2023-01-28T04:24:05.064Z,46.24
2023-01-28T04:26:32.030Z,46.70
2023-01-28T04:28:58.737Z,42.27
2023-01-28T04:31:25.905Z,43.14
2023-01-28T04:34:20.374Z,43.76
2023-01-28T04:37:06.813Z,44.63
2023-01-28T04:40:02.424Z,45.23
2023-01-28T04:42:43.098Z,44.84
2023-01-28T04:45:35.756Z,44.51
2023-01-28T04:48:20.858Z,42.88
2023-01-28T04:51:05.340Z,37.59
2023-01-28T04:53:40.256Z,36.69
2023-01-28T04:56:22.842Z,36.54
2023-01-28T04:58:49.399Z,36.71
2023-01-28T05:01:16.859Z,35.81
2023-01-28T05:03:43.413Z,34.16
2023-01-28T05:06:16.763Z,33.81
2023-01-28T05:08:46.287Z,34.32
2023-01-28T05:11:13.931Z,36.89
2023-01-28T05:13:40.915Z,40.22
2023-01-28T05:16:09.871Z,41.25
2023-01-28T05:18:36.717Z,42.61
2023-01-28T05:21:14.443Z,43.95
2023-01-28T05:23:42.726Z,44.31
2023-01-28T05:26:09.513Z,44.55
2023-01-28T05:28:36.366Z,44.87
2023-01-28T05:31:04.217Z,44.84
2023-01-28T05:33:30.983Z,41.65
2023-01-28T05:35:57.640Z,43.31
2023-01-28T05:38:24.231Z,39.23
2023-01-28T05:40:51.312Z,37.55
2023-01-28T05:43:17.944Z,36.31
2023-01-28T05:46:00.827Z,36.90
2023-01-28T05:48:33.729Z,35.57
2023-01-28T05:51:06.010Z,35.45
2023-01-28T05:53:37.717Z,36.29
2023-01-28T05:56:04.514Z,36.38
2023-01-28T05:58:32.557Z,35.78
2023-01-28T06:01:02.402Z,36.03
2023-01-28T06:03:37.117Z,35.50
2023-01-28T06:06:03.947Z,35.62
2023-01-28T06:08:31.635Z,35.37
2023-01-28T06:10:59.293Z,35.28
2023-01-28T06:13:26.690Z,35.87
2023-01-28T06:16:16.353Z,35.20
2023-01-28T06:18:52.261Z,36.17
2023-01-28T06:21:19.080Z,39.22
2023-01-28T06:23:46.129Z,38.77
2023-01-28T06:26:13.529Z,39.24
2023-01-28T06:28:43.512Z,39.89
2023-01-28T06:31:10.041Z,39.99
2023-01-28T06:33:36.603Z,40.81
2023-01-28T06:36:04.266Z,39.54
2023-01-28T06:38:30.820Z,38.84
2023-01-28T06:40:58.148Z,37.60
2023-01-28T06:43:28.432Z,36.77
2023-01-28T06:45:55.209Z,37.13
2023-01-28T06:48:21.858Z,38.25
2023-01-28T06:50:48.985Z,40.66
2023-01-28T06:53:17.105Z,42.40
2023-01-28T06:55:44.174Z,43.64
2023-01-28T06:58:10.908Z,43.40
2023-01-28T07:00:37.804Z,43.94
2023-01-28T07:03:08.422Z,44.29
2023-01-28T07:05:37.885Z,45.03
2023-01-28T07:08:04.829Z,45.15
2023-01-28T07:10:33.976Z,45.60
2023-01-28T07:13:00.974Z,45.98
2023-01-28T07:15:30.347Z,45.98
2023-01-28T07:17:59.819Z,44.90
2023-01-28T07:20:26.848Z,44.76
2023-01-28T07:22:55.058Z,45.88
2023-01-28T07:25:31.978Z,45.78
2023-01-28T07:28:00.122Z,45.08
2023-01-28T07:30:30.658Z,44.95
2023-01-28T07:33:02.001Z,43.98
2023-01-28T07:35:31.452Z,44.49
2023-01-28T07:38:02.827Z,43.45
2023-01-28T07:40:30.349Z,42.57
2023-01-28T07:42:59.667Z,42.67
2023-01-28T07:48:47.870Z,45.27
2023-01-28T07:51:14.751Z,44.38
2023-01-28T07:53:50.106Z,40.38
2023-01-28T07:56:18.605Z,41.77
2023-01-28T07:58:45.860Z,42.35
2023-01-28T08:01:13.877Z,43.65
2023-01-28T08:03:40.637Z,44.14
2023-01-28T08:06:09.819Z,44.81
2023-01-28T08:08:44.874Z,45.67
2023-01-28T08:11:14.049Z,44.59
2023-01-28T08:13:48.041Z,45.17
2023-01-28T08:16:58.621Z,45.60
2023-01-28T08:19:26.168Z,45.88
2023-01-28T08:21:53.115Z,46.68
2023-01-28T08:24:29.128Z,46.26
2023-01-28T08:26:58.573Z,46.37
2023-01-28T08:29:28.153Z,46.12
2023-01-28T08:32:10.092Z,46.75
2023-01-28T08:34:36.973Z,47.23
2023-01-28T08:37:05.914Z,47.62
2023-01-28T08:39:32.733Z,47.07
2023-01-28T08:41:59.422Z,46.94
2023-01-28T08:44:26.095Z,46.99
2023-01-28T08:46:52.948Z,47.14
2023-01-28T08:49:25.068Z,47.28
2023-01-28T08:51:52.226Z,47.31
2023-01-28T08:54:19.444Z,47.16
2023-01-28T08:56:49.520Z,46.87
2023-01-28T08:59:16.613Z,47.17
2023-01-28T09:01:43.900Z,46.88
2023-01-28T09:04:13.388Z,47.27
2023-01-28T09:06:40.259Z,46.38
2023-01-28T09:09:12.164Z,46.31
2023-01-28T09:11:41.702Z,46.28
2023-01-28T09:14:08.741Z,45.53
2023-01-28T09:16:47.168Z,45.66
2023-01-28T09:19:17.236Z,45.44
2023-01-28T09:21:47.171Z,45.36
2023-01-28T09:24:17.121Z,44.04
2023-01-28T09:26:44.673Z,45.09
2023-01-28T09:29:16.867Z,45.39
2023-01-28T09:31:43.822Z,45.21
2023-01-28T09:34:10.981Z,44.87
2023-01-28T09:36:44.000Z,43.92
2023-01-28T09:39:10.955Z,43.47
2023-01-28T09:42:02.371Z,44.55
2023-01-28T09:45:00.542Z,44.83
2023-01-28T09:47:45.219Z,43.28
2023-01-28T09:50:27.657Z,40.67
2023-01-28T09:53:24.538Z,41.65
2023-01-28T09:55:57.762Z,40.13
2023-01-28T09:58:33.573Z,41.81
2023-01-28T10:01:59.047Z,38.03
2023-01-28T10:05:16.881Z,39.75
2023-01-28T10:08:41.786Z,39.45
2023-01-28T10:18:16.606Z,38.96
2023-01-28T10:21:40.916Z,37.00
2023-01-28T10:25:12.735Z,36.45
2023-01-28T10:28:59.922Z,33.67
2023-01-28T10:37:10.279Z,32.70
2023-01-28T10:40:00.858Z,32.34
2023-01-28T10:43:05.835Z,33.72
2023-01-28T10:45:42.508Z,31.93
2023-01-28T10:48:20.411Z,28.92
2023-01-28T10:51:00.215Z,28.17
2023-01-28T10:53:43.833Z,27.12
2023-01-28T10:56:15.879Z,26.78
2023-01-28T10:58:58.793Z,28.95
2023-01-28T11:01:37.912Z,30.97
2023-01-28T11:04:04.724Z,31.18
2023-01-28T11:06:36.219Z,30.91
2023-01-28T11:09:03.040Z,29.38
2023-01-28T11:11:30.677Z,30.76
2023-01-28T11:14:00.423Z,30.25
2023-01-28T11:16:32.061Z,32.31
2023-01-28T11:19:07.016Z,31.06
2023-01-28T11:21:35.489Z,31.43
2023-01-28T11:24:24.271Z,32.20
2023-01-28T11:26:56.490Z,34.06
2023-01-28T11:29:40.442Z,33.03
2023-01-28T11:32:33.179Z,31.57
2023-01-28T11:35:48.851Z,31.85
2023-01-28T11:38:26.004Z,32.63
2023-01-28T11:41:06.209Z,32.36
2023-01-28T11:44:06.137Z,33.73
2023-01-28T11:46:56.511Z,35.80
2023-01-28T11:53:40.469Z,36.38
2023-01-28T12:06:04.036Z,35.92
2023-01-28T12:09:16.557Z,39.24
2023-01-28T12:12:30.770Z,40.22
2023-01-28T12:15:26.846Z,40.99
2023-01-28T12:18:27.405Z,36.03
2023-01-28T12:21:11.327Z,39.50
2023-01-28T12:23:56.395Z,40.94
2023-01-28T12:26:49.123Z,40.26
2023-01-28T12:29:26.251Z,40.47
2023-01-28T12:32:13.421Z,40.15
2023-01-28T12:34:52.379Z,40.14
2023-01-28T12:37:40.790Z,39.41
2023-01-28T12:40:40.130Z,39.28
2023-01-28T12:43:18.838Z,37.47
2023-01-28T12:46:00.757Z,38.27
2023-01-28T12:48:38.266Z,38.18
2023-01-28T12:51:15.465Z,37.50
2023-01-28T12:54:08.960Z,37.58
2023-01-28T12:56:42.090Z,37.57
2023-01-28T12:59:17.097Z,37.18
2023-01-28T13:02:11.608Z,37.82
2023-01-28T13:04:51.333Z,36.14
2023-01-28T13:07:25.668Z,37.92
2023-01-28T13:10:00.120Z,38.65
2023-01-28T13:12:27.079Z,38.90
2023-01-28T13:14:54.374Z,38.25
2023-01-28T13:17:33.311Z,38.60
2023-01-28T13:20:00.127Z,38.98
2023-01-28T13:22:35.144Z,40.29
2023-01-28T13:25:20.401Z,40.50
2023-01-28T13:28:02.176Z,40.97
2023-01-28T13:30:31.957Z,39.90
2023-01-28T13:33:04.885Z,40.82
2023-01-28T13:35:37.706Z,40.99
2023-01-28T13:38:15.063Z,41.74
2023-01-28T13:40:41.886Z,39.44
2023-01-28T13:43:39.441Z,40.53
2023-01-28T13:46:26.048Z,41.28
2023-01-28T13:48:56.109Z,37.78
2023-01-28T13:51:27.102Z,37.40
2023-01-28T13:54:13.956Z,40.29
2023-01-28T13:56:59.130Z,42.74
2023-01-28T13:59:37.882Z,44.25
2023-01-28T14:02:30.378Z,38.20
2023-01-28T14:05:18.678Z,39.88
2023-01-28T14:08:20.794Z,39.57
2023-01-28T14:11:16.557Z,41.40
2023-01-28T14:14:15.075Z,41.20
2023-01-28T14:16:52.215Z,41.00
2023-01-28T14:19:27.451Z,38.38
2023-01-28T14:21:54.621Z,39.05
2023-01-28T14:24:21.446Z,39.50
2023-01-28T14:27:05.142Z,42.61
2023-01-28T14:29:49.052Z,37.82
2023-01-28T14:32:24.322Z,37.51
2023-01-28T14:34:51.093Z,37.46
2023-01-28T14:37:24.952Z,38.76
2023-01-28T14:40:11.644Z,38.16
2023-01-28T14:42:45.403Z,38.60
2023-01-28T14:45:50.805Z,37.46
2023-01-28T14:48:20.505Z,37.51
2023-01-28T14:50:58.876Z,36.75
2023-01-28T14:53:46.343Z,37.03
2023-01-28T14:56:13.021Z,37.12
2023-01-28T14:58:44.706Z,36.33
2023-01-28T15:01:29.220Z,36.32
2023-01-28T15:03:56.155Z,35.86
2023-01-28T15:06:24.811Z,35.93
2023-01-28T15:08:53.294Z,40.45
2023-01-28T15:11:25.863Z,42.21
2023-01-28T15:13:58.210Z,45.04
2023-01-28T15:16:31.493Z,45.47
2023-01-28T15:19:01.275Z,41.79
2023-01-28T15:21:30.052Z,41.29
2023-01-28T15:23:58.510Z,39.75
2023-01-28T15:26:31.486Z,39.84
2023-01-28T15:28:58.353Z,42.43
2023-01-28T15:31:34.287Z,45.96
2023-01-28T15:34:15.534Z,47.14
2023-01-28T15:36:42.930Z,46.97
2023-01-28T15:39:21.597Z,46.58
2023-01-28T15:41:57.436Z,46.95
2023-01-28T15:44:37.587Z,47.52
2023-01-28T15:47:39.118Z,47.99
2023-01-28T15:50:07.204Z,48.05
2023-01-28T15:52:40.697Z,47.72
2023-01-28T15:55:08.558Z,44.84
2023-01-28T15:57:35.636Z,45.23
2023-01-28T16:00:08.548Z,44.89
2023-01-28T16:02:49.770Z,47.03
2023-01-28T16:05:54.742Z,48.41
2023-01-28T16:08:28.288Z,47.21
2023-01-28T16:10:56.519Z,48.77
2023-01-28T16:13:25.936Z,47.85
2023-01-28T16:15:54.312Z,46.78
2023-01-28T16:18:29.858Z,49.12
2023-01-28T16:20:57.910Z,48.72
2023-01-28T16:23:27.674Z,48.52
2023-01-28T16:26:20.167Z,49.20
2023-01-28T16:28:46.989Z,43.68
2023-01-28T16:31:15.128Z,43.45
2023-01-28T16:33:41.745Z,45.80
2023-01-28T16:36:13.899Z,47.20
2023-01-28T16:38:41.005Z,45.88
2023-01-28T16:41:31.442Z,45.89
2023-01-28T16:44:02.314Z,48.33
2023-01-28T16:46:28.974Z,47.17
2023-01-28T16:48:55.486Z,47.22
2023-01-28T16:51:22.109Z,46.38
2023-01-28T16:53:50.682Z,48.62
2023-01-28T16:56:43.963Z,50.18
2023-01-28T16:59:11.790Z,46.48
2023-01-28T17:01:38.597Z,48.81
2023-01-28T17:04:11.582Z,49.12
2023-01-28T17:06:39.691Z,45.68
2023-01-28T17:09:06.510Z,45.43
2023-01-28T17:11:34.653Z,45.21
2023-01-28T17:14:02.286Z,45.75
2023-01-28T17:16:28.990Z,49.14
2023-01-28T17:18:55.622Z,48.95
2023-01-28T17:21:22.448Z,49.81
2023-01-28T17:23:51.208Z,48.21
2023-01-28T17:26:17.835Z,49.47
2023-01-28T17:28:44.472Z,51.19
2023-01-28T17:31:13.990Z,51.23
2023-01-28T17:33:41.444Z,47.31
2023-01-28T17:36:08.908Z,51.08
2023-01-28T17:38:36.011Z,51.87
2023-01-28T17:41:08.166Z,53.41
2023-01-28T17:43:35.051Z,53.92
2023-01-28T17:46:10.427Z,53.13
2023-01-28T17:48:37.041Z,52.42
2023-01-28T17:51:03.981Z,51.32
2023-01-28T17:53:30.532Z,53.16
2023-01-28T17:55:57.517Z,52.50
2023-01-28T17:58:24.190Z,53.00
2023-01-28T18:00:50.722Z,52.82
2023-01-28T18:03:17.270Z,52.27
2023-01-28T18:05:43.801Z,52.82
2023-01-28T18:08:10.315Z,52.41
2023-01-28T18:10:37.149Z,51.93
2023-01-28T18:13:03.708Z,52.26
2023-01-28T18:15:30.809Z,51.35
2023-01-28T18:17:57.343Z,52.86
2023-01-28T18:20:24.140Z,52.10
2023-01-28T18:22:50.915Z,53.80
2023-01-28T18:25:19.680Z,53.82
2023-01-28T18:27:47.820Z,53.30
2023-01-28T18:30:16.769Z,53.86
2023-01-28T18:32:43.338Z,53.71
2023-01-28T18:35:11.992Z,53.58
2023-01-28T18:37:39.882Z,53.32
2023-01-28T18:40:07.025Z,53.50
2023-01-28T18:42:33.619Z,53.23
2023-01-28T18:45:00.397Z,52.58
2023-01-28T18:47:28.425Z,52.69
2023-01-28T18:49:54.951Z,53.40
2023-01-28T18:52:21.467Z,53.27
2023-01-28T18:54:48.196Z,53.57
2023-01-28T18:57:14.700Z,53.49
2023-01-28T18:59:41.195Z,52.16
2023-01-28T19:02:13.412Z,53.40
2023-01-28T19:04:40.336Z,53.74
2023-01-28T19:07:09.863Z,53.13
2023-01-28T19:09:38.101Z,54.08
2023-01-28T19:12:05.515Z,53.20
2023-01-28T19:14:32.136Z,52.70
2023-01-28T19:16:58.876Z,52.84
2023-01-28T19:19:25.580Z,54.64
2023-01-28T19:21:52.839Z,55.14
2023-01-28T19:24:20.028Z,54.97
2023-01-28T19:26:46.608Z,55.22
2023-01-28T19:29:15.936Z,55.73
2023-01-28T19:31:44.349Z,55.78
2023-01-28T19:34:11.525Z,54.61
2023-01-28T19:36:38.910Z,55.07
2023-01-28T19:39:08.589Z,54.84
2023-01-28T19:41:36.030Z,55.00
2023-01-28T19:44:03.465Z,54.79
2023-01-28T19:46:30.225Z,54.68
2023-01-28T19:48:57.153Z,53.93
2023-01-28T19:51:24.474Z,53.49
2023-01-28T19:53:52.841Z,53.01
2023-01-28T19:56:21.064Z,53.46
2023-01-28T19:58:47.897Z,53.87
2023-01-28T20:01:17.970Z,54.26
2023-01-28T20:03:45.742Z,53.55
2023-01-28T20:06:15.269Z,53.34
2023-01-28T20:08:43.218Z,53.49
2023-01-28T20:11:14.897Z,53.70
2023-01-28T20:13:43.981Z,53.44
2023-01-28T20:16:23.998Z,51.51
2023-01-28T20:18:52.682Z,53.10
2023-01-28T20:21:20.408Z,52.42
2023-01-28T20:23:49.205Z,53.28
2023-01-28T20:26:16.903Z,52.83
2023-01-28T20:28:43.492Z,50.79
2023-01-28T20:31:10.887Z,52.13
2023-01-28T20:33:38.217Z,52.46
2023-01-28T20:36:08.009Z,52.89
2023-01-28T20:38:35.618Z,53.61
2023-01-28T20:41:10.457Z,53.94
2023-01-28T20:43:38.531Z,54.01
2023-01-28T20:46:07.749Z,54.66
2023-01-28T20:48:34.712Z,53.08
2023-01-28T20:51:09.621Z,54.58
2023-01-28T20:53:37.128Z,54.30
2023-01-28T20:56:04.230Z,54.33
2023-01-28T20:58:31.819Z,55.70
2023-01-28T21:00:58.391Z,54.49
2023-01-28T21:03:25.466Z,52.07
2023-01-28T21:05:52.355Z,54.49
2023-01-28T21:08:19.154Z,52.58
2023-01-28T21:10:46.195Z,54.31
2023-01-28T21:13:14.043Z,55.06
2023-01-28T21:15:40.785Z,55.27
2023-01-28T21:18:07.441Z,55.54
2023-01-28T21:20:34.021Z,56.37
2023-01-28T21:23:01.335Z,56.18
2023-01-28T21:25:28.033Z,55.39
2023-01-28T21:27:55.111Z,55.53
2023-01-28T21:30:21.879Z,56.08
2023-01-28T21:32:48.381Z,55.74
2023-01-28T21:35:14.983Z,55.56
2023-01-28T21:37:46.087Z,55.72
2023-01-28T21:40:12.696Z,55.73
2023-01-28T21:42:39.208Z,55.74
2023-01-28T21:45:06.463Z,55.81
2023-01-28T21:47:32.986Z,55.26
2023-01-28T21:50:00.648Z,55.01
2023-01-28T21:52:27.614Z,54.60
2023-01-28T21:54:54.149Z,54.74
2023-01-28T21:57:20.669Z,54.92
2023-01-28T21:59:47.168Z,55.36
2023-01-28T22:02:14.759Z,54.60
2023-01-28T22:04:43.591Z,55.49
2023-01-28T22:07:12.536Z,55.16
2023-01-28T22:09:39.986Z,53.66
2023-01-28T22:12:08.047Z,51.52
2023-01-28T22:14:39.274Z,53.60
2023-01-28T22:17:08.910Z,54.06
2023-01-28T22:19:35.467Z,53.94
2023-01-28T22:22:01.966Z,54.63
2023-01-28T22:24:29.004Z,55.39
2023-01-28T22:26:55.971Z,54.92
2023-01-28T22:29:24.932Z,54.75
2023-01-28T22:31:53.646Z,53.39
2023-01-28T22:34:21.202Z,55.03
2023-01-28T22:36:49.452Z,55.00
2023-01-28T22:39:16.710Z,54.88
2023-01-28T22:41:44.378Z,54.64
2023-01-28T22:44:11.056Z,54.21
2023-01-28T22:46:37.918Z,53.96
2023-01-28T22:49:05.545Z,53.96
2023-01-28T22:51:34.504Z,54.18
2023-01-28T22:54:01.905Z,53.62
2023-01-28T22:56:29.661Z,54.12
2023-01-28T22:58:58.146Z,54.43
2023-01-28T23:01:25.217Z,55.31
2023-01-28T23:03:52.860Z,55.99
2023-01-28T23:06:21.678Z,55.45
2023-01-28T23:08:48.697Z,55.11
2023-01-28T23:11:24.858Z,55.61
2023-01-28T23:14:11.702Z,54.52
2023-01-28T23:16:56.976Z,54.69
2023-01-28T23:19:42.128Z,54.67
2023-01-28T23:22:33.241Z,55.51
2023-01-28T23:25:00.415Z,55.88
2023-01-28T23:27:27.157Z,54.93
2023-01-28T23:29:53.699Z,55.41
2023-01-28T23:32:21.260Z,55.40
2023-01-28T23:34:47.798Z,54.79
2023-01-28T23:37:14.856Z,54.40
2023-01-28T23:39:42.340Z,53.72
2023-01-28T23:42:14.522Z,55.11
2023-01-28T23:44:41.313Z,56.09
2023-01-28T23:47:08.673Z,53.66
2023-01-28T23:49:35.437Z,53.46
2023-01-28T23:52:03.938Z,55.57
2023-01-28T23:54:31.487Z,56.20
2023-01-28T23:56:58.678Z,56.15
2023-01-28T23:59:25.244Z,56.04
